createdAt,value
2022-08-08T00:02:31.047Z,80.76
2022-08-08T00:04:53.230Z,81.39
2022-08-08T00:07:41.086Z,82.05
2022-08-08T00:10:18.246Z,82.63
2022-08-08T00:13:10.234Z,82.38
2022-08-08T00:16:01.842Z,81.97
2022-08-08T00:18:55.003Z,82.30
2022-08-08T00:21:29.565Z,82.02
2022-08-08T00:24:19.602Z,81.58
2022-08-08T00:26:56.452Z,81.59
2022-08-08T00:29:44.799Z,82.01
2022-08-08T00:32:40.379Z,81.72
2022-08-08T00:35:20.125Z,82.04
2022-08-08T00:38:03.045Z,81.55
2022-08-08T00:41:10.766Z,81.46
2022-08-08T00:43:45.627Z,82.47
2022-08-08T00:46:57.991Z,82.01
2022-08-08T00:49:58.381Z,82.37
2022-08-08T00:52:48.798Z,82.74
2022-08-08T00:55:59.206Z,82.37
2022-08-08T00:58:54.450Z,82.42
2022-08-08T01:01:29.365Z,82.85
2022-08-08T01:04:29.699Z,82.90
2022-08-08T01:07:01.316Z,82.60
2022-08-08T01:09:48.692Z,83.15
2022-08-08T01:12:37.522Z,83.21
2022-08-08T01:15:37.197Z,82.63
2022-08-08T01:18:25.405Z,83.10
2022-08-08T01:22:01.674Z,83.76
2022-08-08T01:24:21.429Z,84.06
2022-08-08T01:26:57.510Z,84.04
2022-08-08T01:29:27.981Z,83.95
2022-08-08T01:32:22.879Z,84.17
2022-08-08T01:35:00.996Z,84.63
2022-08-08T01:38:19.127Z,84.06
2022-08-08T01:41:16.068Z,84.47
2022-08-08T01:43:50.718Z,83.69
2022-08-08T01:46:41.711Z,84.25
2022-08-08T01:49:23.226Z,83.45
2022-08-08T01:52:58.954Z,84.18
2022-08-08T01:56:28.454Z,84.25
2022-08-08T01:58:46.410Z,84.13
2022-08-08T02:01:28.098Z,83.75
2022-08-08T02:04:30.249Z,83.71
2022-08-08T02:07:20.174Z,84.03
2022-08-08T02:10:11.625Z,82.97
2022-08-08T02:12:57.702Z,83.85
2022-08-08T02:15:43.166Z,83.56
2022-08-08T02:18:15.688Z,83.46
2022-08-08T02:21:18.165Z,84.13
2022-08-08T02:23:55.523Z,83.91
2022-08-08T02:26:30.188Z,84.29
2022-08-08T02:28:57.466Z,83.85
2022-08-08T02:31:59.654Z,84.57
2022-08-08T02:34:37.678Z,84.80
2022-08-08T02:37:52.905Z,85.00
2022-08-08T02:40:28.009Z,84.80
2022-08-08T02:44:42.758Z,84.83
2022-08-08T02:46:29.660Z,84.69
2022-08-08T02:49:48.207Z,85.01
2022-08-08T02:52:50.766Z,85.11
2022-08-08T02:55:37.640Z,84.61
2022-08-08T02:58:43.031Z,85.23
2022-08-08T03:01:32.493Z,85.31
2022-08-08T03:05:02.329Z,85.01
2022-08-08T03:07:23.580Z,85.37
2022-08-08T03:10:32.956Z,85.59
2022-08-08T03:16:00.167Z,85.58
2022-08-08T03:16:39.675Z,85.07
2022-08-08T03:19:21.750Z,86.35
2022-08-08T03:21:58.905Z,85.63
2022-08-08T03:24:26.621Z,85.84
2022-08-08T03:27:21.699Z,86.74
2022-08-08T03:29:56.879Z,86.59
2022-08-08T03:32:42.447Z,86.06
2022-08-08T03:35:22.584Z,86.04
2022-08-08T03:38:54.213Z,86.04
2022-08-08T03:40:36.943Z,86.02
2022-08-08T03:43:15.802Z,86.02
2022-08-08T03:46:05.288Z,85.77
2022-08-08T03:49:09.700Z,85.62
2022-08-08T03:51:19.356Z,85.34
2022-08-08T03:53:54.944Z,85.43
2022-08-08T03:56:31.170Z,84.44
2022-08-08T03:58:58.888Z,84.49
2022-08-08T04:02:31.739Z,85.50
2022-08-08T04:04:30.600Z,84.39
2022-08-08T04:07:01.291Z,84.16
2022-08-08T04:09:30.808Z,84.50
2022-08-08T04:12:15.735Z,84.80
2022-08-08T04:14:44.935Z,84.57
2022-08-08T04:17:22.901Z,84.62
2022-08-08T04:19:59.033Z,84.90
2022-08-08T04:22:30.330Z,85.00
2022-08-08T04:24:56.955Z,84.98
2022-08-08T04:28:02.154Z,85.05
2022-08-08T04:30:17.725Z,84.86
2022-08-08T04:32:48.105Z,84.97
2022-08-08T04:35:18.295Z,84.89
2022-08-08T04:37:49.341Z,84.73
2022-08-08T04:40:15.863Z,84.76
2022-08-08T04:42:46.732Z,84.48
2022-08-08T04:45:27.140Z,84.33
2022-08-08T04:47:54.399Z,84.06
2022-08-08T04:50:25.296Z,83.94
2022-08-08T04:53:00.696Z,83.63
2022-08-08T04:55:47.434Z,83.15
2022-08-08T04:58:18.476Z,82.79
2022-08-08T05:00:45.088Z,82.27
2022-08-08T05:03:15.963Z,81.94
2022-08-08T05:06:01.296Z,81.71
2022-08-08T05:08:40.415Z,81.25
2022-08-08T05:11:07.926Z,81.46
2022-08-08T05:13:34.475Z,81.10
2022-08-08T05:16:53.188Z,80.88
2022-08-08T05:18:47.694Z,80.07
2022-08-08T05:21:15.880Z,79.57
2022-08-08T05:23:46.239Z,78.72
2022-08-08T05:26:16.050Z,78.44
2022-08-08T05:28:55.963Z,77.98
2022-08-08T05:32:05.097Z,77.77
2022-08-08T05:34:26.507Z,78.23
2022-08-08T05:36:56.491Z,77.25
2022-08-08T05:39:23.985Z,77.35
2022-08-08T05:41:57.981Z,77.34
2022-08-08T05:44:31.151Z,77.74
2022-08-08T05:47:03.040Z,78.20
2022-08-08T05:49:31.339Z,78.72
2022-08-08T05:51:57.755Z,79.08
2022-08-08T05:54:43.257Z,78.50
2022-08-08T05:57:57.568Z,77.77
2022-08-08T06:00:22.539Z,76.71
2022-08-08T06:03:17.514Z,75.27
2022-08-08T06:05:59.190Z,74.06
2022-08-08T06:08:33.450Z,73.40
2022-08-08T06:11:01.121Z,71.87
2022-08-08T06:13:29.998Z,70.84
2022-08-08T06:16:02.913Z,70.28
2022-08-08T06:18:30.069Z,69.82
2022-08-08T06:20:59.260Z,69.62
2022-08-08T06:23:48.809Z,69.26
2022-08-08T06:26:43.291Z,69.14
2022-08-08T06:29:26.467Z,68.38
2022-08-08T06:32:10.282Z,68.07
2022-08-08T06:34:56.703Z,68.29
2022-08-08T06:37:37.957Z,67.52
2022-08-08T06:40:10.468Z,67.29
2022-08-08T06:42:51.423Z,66.32
2022-08-08T06:45:23.068Z,65.43
2022-08-08T06:48:01.072Z,64.91
2022-08-08T06:50:33.851Z,64.48
2022-08-08T06:53:14.015Z,64.12
2022-08-08T06:55:47.259Z,63.94
2022-08-08T06:58:30.418Z,64.23
2022-08-08T07:01:00.874Z,63.74
2022-08-08T07:04:37.533Z,64.02
2022-08-08T07:06:46.689Z,63.13
2022-08-08T07:09:21.087Z,62.89
2022-08-08T07:11:54.769Z,62.52
2022-08-08T07:14:27.806Z,62.31
2022-08-08T07:17:14.389Z,62.51
2022-08-08T07:20:07.712Z,61.99
2022-08-08T07:22:49.471Z,62.07
2022-08-08T07:25:19.385Z,61.91
2022-08-08T07:28:02.286Z,61.74
2022-08-08T07:30:31.426Z,61.00
2022-08-08T07:32:59.193Z,60.62
2022-08-08T07:35:28.658Z,60.05
2022-08-08T07:38:04.948Z,59.75
2022-08-08T07:40:45.723Z,60.07
2022-08-08T07:43:14.866Z,58.93
2022-08-08T07:46:05.714Z,57.73
2022-08-08T07:48:30.210Z,57.04
2022-08-08T07:51:00.795Z,55.31
2022-08-08T07:54:01.906Z,56.62
2022-08-08T07:56:37.413Z,54.80
2022-08-08T07:59:10.999Z,54.98
2022-08-08T08:02:34.328Z,54.55
2022-08-08T08:04:42.092Z,55.04
2022-08-08T08:07:10.438Z,52.13
2022-08-08T08:09:40.094Z,49.59
2022-08-08T08:12:09.953Z,50.56
2022-08-08T08:15:05.311Z,50.91
2022-08-08T08:17:45.070Z,50.13
2022-08-08T08:20:18.299Z,51.38
2022-08-08T08:22:45.055Z,51.63
2022-08-08T08:25:19.177Z,49.80
2022-08-08T08:27:59.451Z,49.68
2022-08-08T08:30:29.266Z,51.60
2022-08-08T08:32:56.439Z,49.70
2022-08-08T08:35:30.046Z,50.80
2022-08-08T08:38:17.535Z,51.81
2022-08-08T08:40:48.607Z,49.16
2022-08-08T08:43:18.984Z,50.74
2022-08-08T08:45:48.370Z,50.52
2022-08-08T08:48:19.591Z,50.71
2022-08-08T08:50:49.998Z,50.04
2022-08-08T08:53:27.309Z,50.17
2022-08-08T08:56:07.810Z,48.66
2022-08-08T08:58:46.776Z,48.98
2022-08-08T09:01:27.243Z,49.91
2022-08-08T09:04:01.219Z,49.54
2022-08-08T09:06:34.003Z,50.07
2022-08-08T09:09:39.882Z,50.18
2022-08-08T09:12:17.642Z,49.78
2022-08-08T09:14:48.508Z,49.66
2022-08-08T09:17:19.060Z,49.62
2022-08-08T09:22:01.643Z,50.11
2022-08-08T09:22:35.339Z,50.48
2022-08-08T09:25:04.552Z,50.15
2022-08-08T09:27:55.940Z,50.13
2022-08-08T09:30:22.217Z,50.31
2022-08-08T09:33:55.669Z,49.88
2022-08-08T09:35:49.367Z,49.13
2022-08-08T09:38:30.168Z,49.17
2022-08-08T09:41:04.488Z,48.55
2022-08-08T09:44:04.466Z,47.96
2022-08-08T09:46:25.597Z,47.70
2022-08-08T09:48:58.433Z,47.75
2022-08-08T09:52:07.094Z,47.45
2022-08-08T09:54:42.460Z,47.20
2022-08-08T09:57:16.905Z,46.71
2022-08-08T10:00:01.702Z,47.17
2022-08-08T10:02:36.528Z,46.57
2022-08-08T10:05:28.012Z,47.81
2022-08-08T10:07:59.829Z,46.30
2022-08-08T10:10:36.649Z,46.25
2022-08-08T10:13:25.993Z,46.21
2022-08-08T10:16:01.930Z,45.64
2022-08-08T10:18:34.467Z,45.81
2022-08-08T10:21:25.382Z,45.33
2022-08-08T10:23:59.784Z,43.90
2022-08-08T10:26:51.882Z,44.10
2022-08-08T10:29:31.172Z,43.54
2022-08-08T10:32:35.457Z,42.79
2022-08-08T10:35:11.697Z,42.77
2022-08-08T10:37:42.015Z,41.38
2022-08-08T10:40:16.838Z,41.36
2022-08-08T10:42:45.213Z,40.92
2022-08-08T10:45:12.305Z,41.16
2022-08-08T10:47:48.537Z,40.49
2022-08-08T10:50:23.715Z,41.08
2022-08-08T10:52:51.495Z,41.83
2022-08-08T10:55:39.669Z,40.67
2022-08-08T10:58:09.150Z,41.17
2022-08-08T11:00:53.365Z,41.86
2022-08-08T11:04:00.688Z,41.94
2022-08-08T11:06:35.019Z,41.44
2022-08-08T11:09:20.078Z,42.61
2022-08-08T11:12:06.286Z,40.27
2022-08-08T11:14:48.288Z,41.24
2022-08-08T11:17:15.980Z,39.56
2022-08-08T11:19:46.663Z,39.72
2022-08-08T11:22:26.989Z,39.50
2022-08-08T11:24:55.824Z,38.14
2022-08-08T11:27:29.233Z,39.20
2022-08-08T11:30:19.875Z,37.02
2022-08-08T11:32:48.326Z,36.84
2022-08-08T11:35:27.049Z,35.33
2022-08-08T11:38:38.980Z,35.20
2022-08-08T11:40:52.548Z,35.78
2022-08-08T11:43:21.561Z,34.77
2022-08-08T11:46:09.792Z,35.04
2022-08-08T11:48:38.595Z,33.89
2022-08-08T11:51:30.215Z,35.35
2022-08-08T11:53:55.113Z,36.39
2022-08-08T11:56:25.768Z,34.67
2022-08-08T11:58:54.094Z,35.48
2022-08-08T12:01:31.185Z,35.43
2022-08-08T12:03:59.723Z,34.55
2022-08-08T12:06:26.442Z,34.44
2022-08-08T12:09:05.699Z,34.82
2022-08-08T12:11:38.827Z,35.90
2022-08-08T12:14:07.818Z,34.94
2022-08-08T12:16:49.183Z,36.46
2022-08-08T12:19:15.956Z,36.33
2022-08-08T12:21:59.468Z,35.90
2022-08-08T12:24:43.081Z,35.64
2022-08-08T12:27:18.998Z,35.38
2022-08-08T12:29:55.537Z,36.18
2022-08-08T12:32:22.616Z,35.74
2022-08-08T12:35:04.636Z,35.57
2022-08-08T12:37:41.444Z,34.97
2022-08-08T12:40:23.702Z,34.62
2022-08-08T12:42:51.968Z,33.08
2022-08-08T12:45:59.616Z,32.59
2022-08-08T12:48:35.707Z,34.36
2022-08-08T12:50:57.656Z,35.71
2022-08-08T12:53:37.696Z,32.26
2022-08-08T12:56:18.214Z,30.29
2022-08-08T12:58:55.497Z,31.23
2022-08-08T13:01:37.585Z,31.06
2022-08-08T13:04:18.515Z,31.20
2022-08-08T13:07:05.983Z,30.87
2022-08-08T13:09:57.748Z,31.02
2022-08-08T13:12:32.590Z,31.11
2022-08-08T13:15:02.445Z,32.02
2022-08-08T13:17:53.889Z,31.83
2022-08-08T13:20:19.898Z,34.70
2022-08-08T13:22:47.480Z,36.25
2022-08-08T13:25:22.162Z,37.02
2022-08-08T13:27:56.583Z,36.56
2022-08-08T13:30:28.264Z,37.24
2022-08-08T13:33:01.161Z,38.01
2022-08-08T13:35:38.117Z,38.26
2022-08-08T13:38:08.396Z,38.36
2022-08-08T13:40:41.326Z,40.47
2022-08-08T13:43:08.285Z,39.59
2022-08-08T13:45:35.236Z,40.63
2022-08-08T13:48:04.165Z,41.24
2022-08-08T13:50:48.039Z,40.91
2022-08-08T13:53:34.160Z,41.26
2022-08-08T13:56:10.996Z,41.68
2022-08-08T13:58:49.093Z,41.75
2022-08-08T14:01:41.928Z,41.10
2022-08-08T14:04:21.517Z,41.43
2022-08-08T14:06:48.226Z,42.04
2022-08-08T14:09:25.609Z,42.40
2022-08-08T14:12:00.366Z,43.22
2022-08-08T14:14:41.603Z,42.30
2022-08-08T14:17:22.109Z,41.44
2022-08-08T14:19:57.973Z,42.72
2022-08-08T14:22:37.814Z,42.90
2022-08-08T14:25:15.274Z,43.18
2022-08-08T14:28:00.025Z,43.61
2022-08-08T14:30:34.438Z,43.78
2022-08-08T14:33:01.370Z,44.33
2022-08-08T14:35:35.827Z,43.86
2022-08-08T14:38:32.963Z,43.39
2022-08-08T14:40:54.079Z,44.37
2022-08-08T14:44:01.676Z,43.61
2022-08-08T14:46:32.561Z,43.50
2022-08-08T14:49:09.564Z,43.86
2022-08-08T14:51:53.019Z,43.05
2022-08-08T14:54:28.864Z,43.68
2022-08-08T14:56:57.134Z,43.01
2022-08-08T14:59:44.496Z,43.68
2022-08-08T15:02:15.289Z,42.89
2022-08-08T15:04:42.347Z,43.27
2022-08-08T15:07:21.441Z,43.19
2022-08-08T15:09:49.607Z,43.59
2022-08-08T15:12:34.793Z,43.55
2022-08-08T15:15:01.646Z,44.00
2022-08-08T15:17:33.693Z,43.84
2022-08-08T15:20:04.312Z,43.43
2022-08-08T15:22:31.626Z,42.96
2022-08-08T15:24:58.163Z,42.75
2022-08-08T15:28:04.953Z,42.71
2022-08-08T15:30:14.540Z,43.09
2022-08-08T15:32:43.227Z,43.29
2022-08-08T15:35:10.859Z,43.11
2022-08-08T15:37:38.064Z,43.16
2022-08-08T15:40:07.104Z,42.94
2022-08-08T15:42:37.996Z,42.13
2022-08-08T15:45:06.507Z,43.24
2022-08-08T15:47:32.944Z,42.51
2022-08-08T15:49:59.883Z,42.31
2022-08-08T15:52:26.388Z,42.60
2022-08-08T15:54:53.232Z,42.13
2022-08-08T15:57:21.103Z,41.62
2022-08-08T16:00:05.099Z,41.89
2022-08-08T16:02:34.982Z,41.51
2022-08-08T16:05:01.891Z,41.47
2022-08-08T16:07:39.323Z,41.71
2022-08-08T16:13:10.645Z,41.51
2022-08-08T16:13:30.721Z,41.67
2022-08-08T16:15:59.133Z,41.93
2022-08-08T16:18:27.792Z,41.72
2022-08-08T16:21:00.487Z,42.57
2022-08-08T16:23:31.398Z,43.19
2022-08-08T16:26:03.847Z,42.42
2022-08-08T16:28:35.776Z,41.30
2022-08-08T16:31:06.439Z,41.64
2022-08-08T16:33:38.570Z,42.11
2022-08-08T16:36:08.518Z,41.42
2022-08-08T16:38:44.355Z,42.77
2022-08-08T16:41:20.298Z,42.53
2022-08-08T16:43:50.622Z,43.60
2022-08-08T16:46:43.078Z,43.50
2022-08-08T16:49:05.225Z,44.14
2022-08-08T16:55:00.736Z,44.21
2022-08-08T16:55:05.138Z,44.91
2022-08-08T16:57:22.841Z,44.66
2022-08-08T16:59:54.219Z,45.81
2022-08-08T17:02:38.585Z,45.72
2022-08-08T17:05:08.004Z,46.14
2022-08-08T17:07:39.372Z,45.88
2022-08-08T17:10:08.786Z,45.90
2022-08-08T17:12:36.789Z,46.67
2022-08-08T17:15:17.672Z,46.36
2022-08-08T17:18:02.969Z,47.38
2022-08-08T17:20:39.831Z,47.07
2022-08-08T17:23:18.502Z,47.19
2022-08-08T17:25:54.543Z,47.13
2022-08-08T17:28:34.349Z,47.01
2022-08-08T17:31:45.573Z,46.29
2022-08-08T17:34:52.768Z,47.00
2022-08-08T17:36:36.537Z,46.29
2022-08-08T17:39:05.322Z,46.82
2022-08-08T17:41:58.111Z,46.37
2022-08-08T17:44:26.929Z,46.89
2022-08-08T17:46:55.405Z,47.05
2022-08-08T17:49:24.897Z,47.98
2022-08-08T17:51:55.341Z,48.53
2022-08-08T17:54:25.940Z,48.57
2022-08-08T17:56:53.969Z,49.08
2022-08-08T17:59:23.471Z,49.42
2022-08-08T18:01:58.554Z,50.16
2022-08-08T18:04:31.135Z,50.44
2022-08-08T18:06:59.735Z,50.87
2022-08-08T18:09:27.529Z,51.30
2022-08-08T18:12:05.072Z,51.33
2022-08-08T18:14:36.833Z,52.00
2022-08-08T18:17:04.420Z,52.49
2022-08-08T18:19:45.646Z,52.70
2022-08-08T18:22:50.263Z,52.96
2022-08-08T18:25:00.590Z,53.34
2022-08-08T18:27:27.759Z,53.47
2022-08-08T18:29:57.540Z,53.83
2022-08-08T18:32:24.024Z,54.26
2022-08-08T18:34:50.521Z,54.58
2022-08-08T18:37:33.632Z,54.86
2022-08-08T18:40:01.444Z,55.06
2022-08-08T18:42:27.954Z,55.46
2022-08-08T18:44:55.294Z,55.70
2022-08-08T18:47:23.991Z,56.02
2022-08-08T18:49:58.754Z,56.44
2022-08-08T18:52:28.225Z,56.61
2022-08-08T18:55:00.233Z,57.11
2022-08-08T18:57:41.375Z,57.44
2022-08-08T19:00:15.783Z,57.93
2022-08-08T19:02:48.157Z,58.27
2022-08-08T19:05:21.616Z,58.80
2022-08-08T19:07:52.276Z,58.73
2022-08-08T19:10:19.541Z,59.59
2022-08-08T19:12:49.892Z,60.26
2022-08-08T19:15:21.632Z,60.51
2022-08-08T19:18:32.344Z,60.81
2022-08-08T19:20:39.427Z,61.10
2022-08-08T19:23:08.619Z,61.79
2022-08-08T19:26:02.042Z,62.16
2022-08-08T19:28:24.234Z,62.29
2022-08-08T19:31:04.038Z,64.10
2022-08-08T19:33:52.022Z,63.73
2022-08-08T19:36:27.771Z,64.57
2022-08-08T19:38:56.238Z,65.20
2022-08-08T19:41:30.713Z,65.99
2022-08-08T19:44:03.045Z,66.30
2022-08-08T19:46:33.305Z,66.94
2022-08-08T19:49:00.910Z,66.94
2022-08-08T19:51:34.120Z,67.30
2022-08-08T19:54:07.127Z,68.15
2022-08-08T19:56:39.749Z,68.24
2022-08-08T19:59:08.733Z,68.83
2022-08-08T20:02:01.719Z,69.03
2022-08-08T20:04:22.388Z,69.58
2022-08-08T20:06:50.801Z,69.76
2022-08-08T20:09:22.803Z,70.18
2022-08-08T20:11:50.678Z,69.82
2022-08-08T20:14:34.278Z,69.63
2022-08-08T20:17:02.367Z,69.58
2022-08-08T20:19:33.590Z,70.45
2022-08-08T20:22:20.533Z,70.14
2022-08-08T20:24:47.820Z,70.44
2022-08-08T20:27:33.068Z,71.07
2022-08-08T20:30:01.561Z,70.73
2022-08-08T20:32:29.971Z,71.42
2022-08-08T20:35:01.046Z,72.17
2022-08-08T20:37:46.622Z,72.28
2022-08-08T20:40:16.762Z,72.37
2022-08-08T20:42:54.675Z,73.75
2022-08-08T20:45:54.973Z,74.15
2022-08-08T20:48:08.725Z,74.96
2022-08-08T20:50:35.294Z,76.09
2022-08-08T20:53:02.109Z,76.59
2022-08-08T20:55:29.630Z,77.14
2022-08-08T20:58:02.951Z,77.56
2022-08-08T21:00:29.447Z,77.44
2022-08-08T21:02:56.961Z,77.42
2022-08-08T21:05:23.941Z,76.81
2022-08-08T21:08:36.489Z,76.51
2022-08-08T21:10:45.178Z,76.46
2022-08-08T21:13:11.620Z,76.08
2022-08-08T21:16:04.909Z,75.78
2022-08-08T21:18:27.768Z,75.47
2022-08-08T21:20:54.599Z,75.34
2022-08-08T21:23:25.018Z,75.02
2022-08-08T21:26:08.157Z,74.95
2022-08-08T21:28:36.299Z,74.95
2022-08-08T21:31:22.569Z,75.10
2022-08-08T21:33:50.476Z,74.71
2022-08-08T21:36:20.126Z,75.16
2022-08-08T21:38:48.185Z,74.67
2022-08-08T21:41:28.895Z,75.05
2022-08-08T21:44:01.098Z,75.26
2022-08-08T21:48:02.089Z,75.91
2022-08-08T21:49:16.692Z,75.97
2022-08-08T21:54:18.802Z,76.43
2022-08-08T21:54:54.727Z,76.76
2022-08-08T21:57:17.771Z,76.63
2022-08-08T22:00:03.667Z,76.59
2022-08-08T22:02:30.856Z,76.56
2022-08-08T22:04:58.908Z,77.30
2022-08-08T22:07:39.437Z,77.88
2022-08-08T22:10:18.390Z,77.67
2022-08-08T22:13:16.944Z,78.14
2022-08-08T22:15:43.844Z,78.29
2022-08-08T22:18:26.886Z,78.57
2022-08-08T22:20:54.753Z,78.38
2022-08-08T22:23:21.167Z,78.05
2022-08-08T22:26:27.398Z,78.56
2022-08-08T22:29:13.192Z,78.69
2022-08-08T22:31:25.003Z,78.29
2022-08-08T22:34:13.178Z,78.40
2022-08-08T22:36:42.816Z,78.51
2022-08-08T22:39:18.901Z,78.26
2022-08-08T22:41:46.467Z,77.69
2022-08-08T22:44:15.930Z,77.71
2022-08-08T22:46:42.598Z,77.72
2022-08-08T22:49:12.808Z,77.91
2022-08-08T22:51:46.770Z,77.39
2022-08-08T22:54:31.900Z,77.38
2022-08-08T22:56:59.613Z,77.48
2022-08-08T22:59:26.050Z,77.92
2022-08-08T23:02:02.102Z,78.10
2022-08-08T23:04:31.931Z,78.50
2022-08-08T23:07:02.664Z,78.26
2022-08-08T23:09:30.747Z,78.39
2022-08-08T23:12:27.705Z,78.61
2022-08-08T23:14:56.108Z,78.84
2022-08-08T23:17:30.035Z,78.84
2022-08-08T23:19:56.873Z,77.04
2022-08-08T23:22:23.386Z,78.59
2022-08-08T23:24:50.813Z,79.14
2022-08-08T23:27:37.794Z,79.27
2022-08-08T23:30:05.546Z,79.53
2022-08-08T23:32:35.914Z,79.93
2022-08-08T23:35:12.674Z,80.11
2022-08-08T23:38:01.990Z,80.22
2022-08-08T23:40:30.271Z,80.47
2022-08-08T23:42:56.841Z,81.46
2022-08-08T23:49:03.021Z,81.56
2022-08-08T23:49:04.026Z,81.63
2022-08-08T23:50:57.534Z,81.40
2022-08-08T23:54:05.855Z,81.71
2022-08-08T23:56:10.878Z,82.34
2022-08-08T23:58:38.894Z,82.21
